Time;durP1;ratioP1;P1;durP2;ratioP2;P2;SDS_P1;SDS_P2;PMS_P1;PMS_P2;Temp;Humidity;BMP_temperature;BMP_pressure;BME280_temperature;BME280_humidity;BME280_pressure;Samples;Min_cycle;Max_cycle;Signal;HPM_P1;HPM_P2
2022/07/11 00:01:42;;;;;;;3.38;0.73;;;;;;;13.68;54.98;102277.19;5023067;28;20033;-75
2022/07/11 00:04:07;;;;;;;1.20;0.40;;;;;;;13.77;54.42;102270.81;5035448;28;20546;-76
2022/07/11 00:06:33;;;;;;;1.92;0.40;;;;;;;13.52;54.73;102272.38;5016952;28;20598;-77
2022/07/11 00:08:58;;;;;;;1.20;0.25;;;;;;;13.65;54.73;102272.91;4995807;28;20040;-76
2022/07/11 00:11:24;;;;;;;0.80;0.38;;;;;;;13.68;54.95;102271.94;5018558;28;20025;-75
2022/07/11 00:13:50;;;;;;;1.30;0.38;;;;;;;13.67;54.48;102275.47;5012054;28;20049;-76
2022/07/11 00:16:15;;;;;;;2.05;0.52;;;;;;;13.65;54.56;102278.16;5019294;28;20052;-78
2022/07/11 00:18:41;;;;;;;1.40;0.47;;;;;;;13.70;54.67;102270.13;5002749;28;20046;-76
2022/07/11 00:21:07;;;;;;;4.53;0.57;;;;;;;13.72;54.85;102274.44;5018233;28;20042;-76
2022/07/11 00:23:32;;;;;;;1.75;0.63;;;;;;;13.59;54.65;102272.22;5019150;28;20396;-75
2022/07/11 00:25:57;;;;;;;2.35;0.40;;;;;;;13.67;54.85;102272.84;5008428;28;20073;-75
2022/07/11 00:28:23;;;;;;;2.42;0.50;;;;;;;13.58;54.99;102265.25;5002234;28;20029;-75
2022/07/11 00:30:48;;;;;;;3.50;0.85;;;;;;;13.62;54.76;102272.13;4977838;28;20048;-75
2022/07/11 00:33:14;;;;;;;2.28;0.75;;;;;;;13.62;54.96;102272.13;5020057;28;20616;-75
2022/07/11 00:35:39;;;;;;;5.35;0.70;;;;;;;13.55;54.94;102265.31;4998649;28;20048;-76
2022/07/11 00:38:05;;;;;;;4.32;0.55;;;;;;;13.60;55.14;102271.31;5011861;28;20033;-76
2022/07/11 00:40:31;;;;;;;5.35;0.98;;;;;;;13.56;55.21;102269.66;5014995;28;20091;-76
2022/07/11 00:42:56;;;;;;;1.55;0.60;;;;;;;13.59;55.26;102270.47;5010856;28;20114;-75
2022/07/11 00:45:22;;;;;;;2.17;0.43;;;;;;;13.64;55.36;102265.06;4997736;28;20037;-76
2022/07/11 00:47:47;;;;;;;1.50;1.00;;;;;;;13.63;55.35;102271.22;5000231;28;20044;-76
2022/07/11 00:50:14;;;;;;;2.85;1.45;;;;;;;13.62;55.10;102265.09;5033784;28;20102;-74
2022/07/11 00:52:40;;;;;;;3.40;0.82;;;;;;;13.64;55.25;102267.69;5004579;28;20075;-76
2022/07/11 00:55:08;;;;;;;6.30;0.82;;;;;;;13.69;55.34;102269.25;5017394;28;20069;-76
2022/07/11 00:57:35;;;;;;;3.70;1.63;;;;;;;13.64;55.22;102276.41;5018286;28;20022;-78
2022/07/11 01:00:01;;;;;;;2.17;1.00;;;;;;;13.42;55.65;102264.81;5010442;28;20053;-75
2022/07/11 01:02:27;;;;;;;1.88;0.85;;;;;;;13.22;56.30;102268.03;5005626;28;20381;-76
2022/07/11 01:04:52;;;;;;;1.83;1.30;;;;;;;13.26;56.45;102264.41;4982555;28;20048;-74
2022/07/11 01:07:18;;;;;;;3.80;1.45;;;;;;;13.35;56.57;102264.13;5014488;28;20510;-77
2022/07/11 01:09:43;;;;;;;1.98;0.80;;;;;;;13.34;56.30;102267.69;5000100;28;20686;-76
2022/07/11 01:12:09;;;;;;;2.20;1.00;;;;;;;13.39;56.41;102264.91;5019073;28;21294;-76
2022/07/11 01:14:34;;;;;;;3.08;0.90;;;;;;;13.36;56.50;102265.88;5010346;28;20045;-78
2022/07/11 01:17:00;;;;;;;1.40;0.80;;;;;;;13.39;56.41;102265.78;5013889;28;20061;-78
2022/07/11 01:19:26;;;;;;;2.15;0.68;;;;;;;13.40;56.28;102256.97;5002021;28;20057;-76
2022/07/11 01:21:56;;;;;;;2.97;0.60;;;;;;;13.44;56.50;102266.47;5011968;28;20225;-77
2022/07/11 01:24:22;;;;;;;3.42;1.10;;;;;;;13.32;56.28;102264.25;5002036;28;20099;-77
2022/07/11 01:26:49;;;;;;;2.90;0.65;;;;;;;13.40;56.41;102256.97;5029007;28;20052;-77
2022/07/11 01:29:14;;;;;;;2.08;1.23;;;;;;;13.40;56.47;102256.13;5009706;28;20040;-75
2022/07/11 01:31:41;;;;;;;1.75;0.88;;;;;;;13.39;56.57;102255.28;5012659;28;20037;-77
2022/07/11 01:34:07;;;;;;;2.83;0.95;;;;;;;13.43;56.64;102254.28;5014301;28;20456;-78
2022/07/11 01:36:33;;;;;;;1.02;0.73;;;;;;;13.43;56.42;102249.03;5018678;28;20100;-76
2022/07/11 01:38:58;;;;;;;7.63;1.15;;;;;;;13.31;56.37;102254.63;5010209;28;20041;-76
2022/07/11 01:41:24;;;;;;;1.40;1.05;;;;;;;13.39;56.65;102243.91;5017276;28;20687;-77
2022/07/11 01:43:50;;;;;;;4.60;1.13;;;;;;;13.46;56.54;102251.53;5017315;28;20499;-77
2022/07/11 01:46:16;;;;;;;9.77;1.17;;;;;;;13.45;56.38;102244.59;5002000;28;20044;-76
2022/07/11 01:48:42;;;;;;;4.15;1.40;;;;;;;13.44;56.75;102250.72;5019915;28;20034;-75
2022/07/11 01:51:07;;;;;;;2.40;1.08;;;;;;;13.40;56.72;102248.25;4974510;28;20049;-77
2022/07/11 01:53:33;;;;;;;3.13;0.70;;;;;;;13.37;56.89;102249.19;5017061;28;20041;-76
2022/07/11 01:55:58;;;;;;;3.33;1.05;;;;;;;13.28;57.14;102250.34;5016927;28;20049;-76
2022/07/11 01:58:24;;;;;;;6.63;0.90;;;;;;;12.88;57.88;102248.00;5002343;28;20030;-76
2022/07/11 02:00:49;;;;;;;2.53;0.70;;;;;;;12.75;58.33;102250.09;5010498;28;20049;-75
2022/07/11 02:03:16;;;;;;;2.15;0.43;;;;;;;12.52;59.25;102255.06;5013234;28;20045;-76
2022/07/11 02:05:42;;;;;;;1.95;0.50;;;;;;;12.64;58.90;102247.72;5010133;28;20052;-76
2022/07/11 02:08:11;;;;;;;1.10;0.30;;;;;;;12.86;58.34;102255.91;5010289;28;20069;-77
2022/07/11 02:10:43;;;;;;;3.22;0.60;;;;;;;12.82;58.27;102248.16;4996527;28;20033;-77
2022/07/11 02:13:11;;;;;;;1.73;0.47;;;;;;;12.96;57.87;102246.03;4998160;28;20187;-77
2022/07/11 02:15:38;;;;;;;1.88;0.40;;;;;;;12.68;58.69;102246.75;5012474;28;20029;-76
2022/07/11 02:18:03;;;;;;;2.15;0.20;;;;;;;12.94;58.19;102247.84;5016361;28;20080;-75
2022/07/11 02:20:29;;;;;;;0.63;0.10;;;;;;;12.97;58.08;102242.50;5018751;28;20121;-77
2022/07/11 02:22:56;;;;;;;1.52;0.40;;;;;;;12.99;57.80;102243.31;5001004;28;20037;-76
2022/07/11 02:25:22;;;;;;;1.75;0.20;;;;;;;13.15;57.65;102240.25;5026534;28;20033;-76
2022/07/11 02:27:48;;;;;;;1.73;0.20;;;;;;;13.21;57.57;102246.19;5024217;28;20038;-77
2022/07/11 02:30:14;;;;;;;2.42;0.30;;;;;;;13.15;57.49;102240.25;5006560;28;23078;-77
2022/07/11 02:32:39;;;;;;;1.75;0.25;;;;;;;13.22;57.24;102254.91;5040032;28;20041;-77
2022/07/11 02:35:05;;;;;;;2.58;0.20;;;;;;;13.09;57.71;102244.78;5016742;28;20432;-77
2022/07/11 02:37:31;;;;;;;3.55;0.40;;;;;;;13.09;57.73;102243.88;5041328;28;20419;-75
2022/07/11 02:39:57;;;;;;;1.65;0.32;;;;;;;13.01;57.77;102246.75;5038434;28;20045;-77
2022/07/11 02:42:23;;;;;;;0.80;0.30;;;;;;;12.81;58.45;102236.81;5021332;28;20459;-76
2022/07/11 02:44:48;;;;;;;2.33;0.30;;;;;;;12.91;58.06;102242.66;5017941;28;20064;-77
2022/07/11 02:47:16;;;;;;;2.47;0.30;;;;;;;12.88;58.04;102240.13;5001662;28;20038;-77
2022/07/11 02:49:42;;;;;;;2.65;0.30;;;;;;;12.78;58.43;102243.91;5022489;28;20115;-76
2022/07/11 02:52:08;;;;;;;0.90;0.20;;;;;;;12.80;58.41;102242.09;5037400;28;20524;-76
2022/07/11 02:54:33;;;;;;;0.93;0.10;;;;;;;12.85;58.45;102248.09;5005665;28;20240;-76
2022/07/11 02:56:59;;;;;;;0.70;0.20;;;;;;;12.88;58.31;102243.59;5001286;28;20045;-76
2022/07/11 02:59:25;;;;;;;0.70;0.20;;;;;;;13.06;58.31;102247.47;5003886;28;20033;-75
2022/07/11 03:01:50;;;;;;;2.10;0.50;;;;;;;13.13;58.16;102252.56;5017832;28;20041;-76
2022/07/11 03:04:16;;;;;;;1.58;0.60;;;;;;;12.85;58.72;102248.09;5008152;28;20114;-76
2022/07/11 03:06:42;;;;;;;2.85;0.40;;;;;;;13.03;58.04;102244.94;5022388;28;20065;-77
2022/07/11 03:09:09;;;;;;;0.95;0.25;;;;;;;12.94;58.45;102245.22;5022858;28;20670;-76
2022/07/11 03:11:35;;;;;;;1.10;0.30;;;;;;;12.92;58.60;102249.63;5018254;28;20053;-76
2022/07/11 03:14:01;;;;;;;0.80;0.35;;;;;;;12.73;58.68;102240.53;5022392;28;21881;-75
2022/07/11 03:16:30;;;;;;;1.05;0.20;;;;;;;12.84;58.68;102243.72;5008921;28;20053;-76
2022/07/11 03:18:56;;;;;;;1.63;0.10;;;;;;;12.87;58.39;102246.25;5016854;28;20084;-76
2022/07/11 03:21:23;;;;;;;0.43;0.20;;;;;;;13.03;58.32;102244.94;5019670;28;20040;-75
2022/07/11 03:23:49;;;;;;;0.20;0.10;;;;;;;12.97;58.05;102244.25;5031706;28;20029;-75
2022/07/11 03:26:15;;;;;;;1.50;0.52;;;;;;;12.96;57.97;102240.78;5022651;28;20026;-78
2022/07/11 03:28:41;;;;;;;1.45;0.17;;;;;;;12.93;58.07;102245.25;5002543;28;20045;-77
2022/07/11 03:31:06;;;;;;;0.38;0.10;;;;;;;12.96;58.39;102248.66;5019020;28;20021;-77
2022/07/11 03:33:32;;;;;;;0.20;0.10;;;;;;;12.98;57.98;102240.72;5034821;28;20068;-76
2022/07/11 03:35:57;;;;;;;0.35;0.10;;;;;;;12.98;57.97;102243.34;4998740;28;20061;-76
2022/07/11 03:38:23;;;;;;;2.45;0.08;;;;;;;12.87;57.88;102244.53;4996323;28;20075;-77
2022/07/11 03:40:49;;;;;;;1.13;0.05;;;;;;;12.90;57.86;102243.56;5017373;28;20084;-77
2022/07/11 03:43:18;;;;;;;1.75;0.10;;;;;;;12.97;57.76;102247.72;5015079;28;20042;-78
2022/07/11 03:45:43;;;;;;;0.80;0.10;;;;;;;12.86;57.91;102252.44;5013911;28;20033;-77
2022/07/11 03:48:10;;;;;;;1.10;0.10;;;;;;;13.09;57.55;102249.13;5019400;28;20041;-76
2022/07/11 03:50:35;;;;;;;3.20;0.10;;;;;;;13.18;57.68;102250.63;5018868;28;20060;-77
2022/07/11 03:53:02;;;;;;;0.20;0.10;;;;;;;13.20;57.23;102261.97;5012149;28;20076;-78
2022/07/11 03:55:28;;;;;;;0.20;0.03;;;;;;;13.24;57.08;102250.47;5022627;28;20033;-78
2022/07/11 03:57:53;;;;;;;0.93;0.10;;;;;;;13.24;57.08;102253.09;5012510;28;20044;-77
2022/07/11 04:00:19;;;;;;;1.98;0.13;;;;;;;13.22;57.14;102252.28;5034886;28;20827;-77
2022/07/11 04:02:48;;;;;;;0.47;0.17;;;;;;;13.23;56.86;102256.63;4997167;28;20042;-77
2022/07/11 04:05:14;;;;;;;1.40;0.10;;;;;;;13.33;57.10;102245.78;5017014;28;20037;-78
2022/07/11 04:07:40;;;;;;;0.80;0.13;;;;;;;13.34;56.82;102251.94;5001375;28;20044;-77
2022/07/11 04:10:06;;;;;;;1.35;0.20;;;;;;;13.04;57.96;102251.91;5017721;28;20229;-77
2022/07/11 04:12:31;;;;;;;2.42;0.10;;;;;;;13.15;57.69;102256.00;5019658;28;20641;-77
2022/07/11 04:14:57;;;;;;;1.45;0.10;;;;;;;13.27;57.33;102251.25;5017051;28;20104;-78
2022/07/11 04:17:23;;;;;;;2.92;0.43;;;;;;;13.33;57.35;102250.19;5029459;28;20052;-76
2022/07/11 04:19:48;;;;;;;0.43;0.10;;;;;;;13.31;57.43;102252.84;5030325;28;20508;-76
2022/07/11 04:22:14;;;;;;;2.38;0.25;;;;;;;13.25;57.33;102249.56;4997453;28;20041;-77
2022/07/11 04:24:39;;;;;;;0.63;0.10;;;;;;;13.28;57.85;102254.72;5003658;28;20044;-77
2022/07/11 04:27:05;;;;;;;1.40;0.10;;;;;;;13.23;57.54;102254.88;5032926;28;20045;-75
2022/07/11 04:29:30;;;;;;;2.03;0.10;;;;;;;13.22;57.72;102257.53;5018254;28;20037;-76
2022/07/11 04:31:56;;;;;;;1.60;0.08;;;;;;;13.20;57.97;102254.94;5017259;28;20053;-77
2022/07/11 04:34:21;;;;;;;1.23;0.10;;;;;;;13.16;58.31;102249.81;5019125;28;20496;-76
2022/07/11 04:36:47;;;;;;;0.43;0.15;;;;;;;13.26;58.26;102265.28;5011109;28;20041;-75
2022/07/11 04:39:13;;;;;;;0.65;0.10;;;;;;;13.37;57.89;102257.09;5013962;28;20495;-76
2022/07/11 04:41:39;;;;;;;1.40;0.10;;;;;;;13.45;57.78;102262.97;5014588;28;20083;-77
2022/07/11 04:44:05;;;;;;;2.20;0.32;;;;;;;13.48;57.43;102260.25;5017634;28;20022;-76
2022/07/11 04:46:31;;;;;;;2.72;1.02;;;;;;;13.61;57.88;102259.91;5015451;28;20498;-77
2022/07/11 04:48:57;;;;;;;2.05;0.10;;;;;;;13.67;57.01;102260.59;4998625;28;20029;-76
2022/07/11 04:51:24;;;;;;;1.65;0.08;;;;;;;13.79;57.04;102264.59;5028549;28;20025;-74
2022/07/11 04:53:50;;;;;;;0.80;0.00;;;;;;;13.81;57.08;102262.78;4997506;28;20052;-75
2022/07/11 04:56:16;;;;;;;0.50;0.10;;;;;;;13.73;56.65;102265.63;5034074;28;20076;-76
2022/07/11 04:58:41;;;;;;;0.08;0.00;;;;;;;13.65;57.07;102269.41;5015837;28;20068;-77
2022/07/11 05:01:07;;;;;;;0.22;0.15;;;;;;;13.56;57.70;102272.28;5018463;28;20040;-76
2022/07/11 05:03:32;;;;;;;2.28;0.10;;;;;;;13.43;57.63;102272.66;5011718;28;20562;-79
2022/07/11 05:05:58;;;;;;;1.10;0.00;;;;;;;13.53;57.68;102274.09;5012915;28;20037;-76
2022/07/11 05:08:24;;;;;;;1.85;0.10;;;;;;;13.52;57.24;102276.78;5000070;28;20044;-78
2022/07/11 05:10:49;;;;;;;1.80;0.00;;;;;;;13.56;57.17;102278.38;5015934;28;20037;-77
2022/07/11 05:13:15;;;;;;;1.58;0.40;;;;;;;13.59;57.35;102272.22;4998242;28;20034;-76
2022/07/11 05:15:40;;;;;;;0.50;0.10;;;;;;;13.47;57.44;102274.28;5019755;28;20127;-77
2022/07/11 05:18:06;;;;;;;0.77;0.00;;;;;;;13.54;57.32;102272.34;4994344;28;20037;-77
2022/07/11 05:20:32;;;;;;;1.98;0.00;;;;;;;13.56;57.51;102277.53;5028566;28;20041;-77
2022/07/11 05:22:58;;;;;;;0.10;0.00;;;;;;;13.55;57.42;102275.81;5014525;28;20412;-78
2022/07/11 05:25:24;;;;;;;2.65;0.10;;;;;;;13.59;57.58;102282.75;5016161;28;20491;-77
2022/07/11 05:27:50;;;;;;;0.20;0.00;;;;;;;13.71;57.40;102280.56;5015374;28;20037;-78
2022/07/11 05:30:16;;;;;;;0.50;0.00;;;;;;;13.67;57.11;102283.34;5018372;28;20037;-77
2022/07/11 05:32:41;;;;;;;0.38;0.10;;;;;;;13.59;57.36;102285.38;5011989;28;20106;-77
2022/07/11 05:35:07;;;;;;;0.90;0.00;;;;;;;13.71;57.14;102285.81;5015539;28;20104;-75
2022/07/11 05:37:33;;;;;;;2.05;0.10;;;;;;;13.36;57.96;102292.13;5015146;28;20120;-77
2022/07/11 05:39:58;;;;;;;3.60;0.10;;;;;;;13.49;58.09;102290.84;5016700;28;20033;-75
2022/07/11 05:42:24;;;;;;;1.40;0.00;;;;;;;13.45;57.99;102285.72;5015164;28;20042;-76
2022/07/11 05:44:50;;;;;;;1.27;0.00;;;;;;;13.38;58.12;102285.03;5014193;28;20056;-78
2022/07/11 05:47:15;;;;;;;2.35;0.00;;;;;;;13.40;58.00;102287.63;5017623;28;20549;-77
2022/07/11 05:49:41;;;;;;;1.38;0.10;;;;;;;13.66;57.53;102287.75;5017542;28;20124;-77
2022/07/11 05:52:07;;;;;;;1.05;0.00;;;;;;;14.15;56.35;102290.59;5016935;28;20041;-78
2022/07/11 05:54:32;;;;;;;0.17;0.00;;;;;;;14.18;55.93;102287.84;5013420;28;20075;-76
2022/07/11 05:56:57;;;;;;;0.03;0.00;;;;;;;14.07;55.76;102284.72;5014363;28;20042;-77
2022/07/11 05:59:23;;;;;;;0.38;0.00;;;;;;;14.54;53.93;102284.94;5012972;28;20033;-76
2022/07/11 06:01:48;;;;;;;1.23;0.00;;;;;;;15.00;54.27;102280.69;4995896;28;20875;-75
2022/07/11 06:04:14;;;;;;;0.20;0.00;;;;;;;15.20;53.63;102281.72;5001259;28;20029;-78
2022/07/11 06:06:40;;;;;;;0.68;0.00;;;;;;;15.22;53.26;102283.41;5010449;28;20037;-77
2022/07/11 06:09:06;;;;;;;1.45;0.20;;;;;;;14.84;53.50;102285.66;5012733;28;20033;-77
2022/07/11 06:11:31;;;;;;;0.30;0.22;;;;;;;14.89;53.06;102281.06;5033253;28;20079;-77
2022/07/11 06:13:57;;;;;;;0.25;0.00;;;;;;;14.68;53.82;102292.34;5000505;28;20053;-76
2022/07/11 06:16:23;;;;;;;0.30;0.00;;;;;;;14.42;54.22;102280.97;5017924;28;20447;-77
2022/07/11 06:18:50;;;;;;;3.40;0.10;;;;;;;14.55;54.31;102290.16;5006355;28;20140;-76
2022/07/11 06:21:16;;;;;;;0.65;0.00;;;;;;;14.47;54.32;102293.94;5014478;28;20048;-77
2022/07/11 06:23:42;;;;;;;0.63;0.00;;;;;;;14.60;54.42;102287.34;5013145;28;20042;-77
2022/07/11 06:26:11;;;;;;;2.10;0.08;;;;;;;14.61;54.33;102288.22;5028620;28;20645;-76
2022/07/11 06:28:39;;;;;;;2.17;0.10;;;;;;;14.70;54.50;102286.13;5009351;28;20372;-76
2022/07/11 06:31:05;;;;;;;0.13;0.00;;;;;;;14.76;54.01;102280.63;5016511;28;20384;-75
2022/07/11 06:33:30;;;;;;;1.55;0.00;;;;;;;14.81;53.75;102290.16;5014599;28;20049;-76
2022/07/11 06:35:56;;;;;;;0.32;0.00;;;;;;;15.21;53.11;102286.91;5009568;28;20046;-76
2022/07/11 06:38:22;;;;;;;0.40;0.00;;;;;;;15.21;53.28;102286.06;4995508;28;20038;-76
2022/07/11 06:40:48;;;;;;;0.40;0.00;;;;;;;15.47;52.53;102287.75;4991988;28;20033;-76
2022/07/11 06:43:13;;;;;;;0.00;0.00;;;;;;;15.38;52.06;102279.28;5030126;28;20051;-75
2022/07/11 06:45:39;;;;;;;0.30;0.00;;;;;;;15.40;52.12;102281.00;5029203;28;20041;-77
2022/07/11 06:48:06;;;;;;;0.50;0.00;;;;;;;15.20;51.63;102277.31;5015056;28;20689;-75
2022/07/11 06:50:32;;;;;;;3.90;0.00;;;;;;;14.71;53.05;102292.25;5027120;28;20100;-77
2022/07/11 06:52:58;;;;;;;0.00;0.00;;;;;;;14.60;53.45;102292.63;5027134;28;20836;-77
2022/07/11 06:55:24;;;;;;;0.30;0.00;;;;;;;14.83;53.26;102285.69;5015550;28;20033;-76
2022/07/11 06:57:50;;;;;;;0.20;0.00;;;;;;;14.65;54.15;102293.31;5010247;28;20175;-76
2022/07/11 07:00:17;;;;;;;0.13;0.00;;;;;;;14.57;54.95;102295.38;4999708;28;20048;-75
2022/07/11 07:02:43;;;;;;;1.38;0.00;;;;;;;14.58;54.71;102297.06;5010029;28;20511;-75
2022/07/11 07:05:09;;;;;;;0.98;0.00;;;;;;;14.84;54.41;102298.81;5015419;28;20057;-75
2022/07/11 07:07:35;;;;;;;0.88;0.00;;;;;;;14.86;54.59;102306.66;5009068;28;20120;-75
2022/07/11 07:10:01;;;;;;;0.00;0.00;;;;;;;14.90;54.03;102302.97;4997183;28;20919;-74
2022/07/11 07:12:26;;;;;;;0.08;0.00;;;;;;;14.82;53.95;102307.66;5016329;28;20040;-76
2022/07/11 07:14:52;;;;;;;0.45;0.00;;;;;;;14.65;54.52;102314.34;5018208;28;20040;-77
2022/07/11 07:17:18;;;;;;;0.20;0.00;;;;;;;14.49;54.28;102313.19;5002382;28;20046;-75
2022/07/11 07:19:44;;;;;;;1.35;0.08;;;;;;;14.72;54.42;102310.63;5015621;28;20048;-76
2022/07/11 07:22:10;;;;;;;0.10;0.00;;;;;;;14.82;53.99;102315.56;5002285;28;20519;-75
2022/07/11 07:24:36;;;;;;;0.05;0.00;;;;;;;15.03;53.74;102301.63;5014437;28;20101;-75
2022/07/11 07:27:03;;;;;;;1.17;0.00;;;;;;;14.91;53.40;102307.34;5014776;28;20227;-76
2022/07/11 07:29:28;;;;;;;0.57;0.00;;;;;;;15.03;53.66;102304.25;5017715;28;20653;-77
2022/07/11 07:31:54;;;;;;;0.30;0.10;;;;;;;14.85;53.59;102315.44;5003194;28;20045;-76
2022/07/11 07:34:20;;;;;;;1.75;0.10;;;;;;;15.21;53.11;102312.41;5014584;28;20040;-77
2022/07/11 07:36:46;;;;;;;0.95;0.00;;;;;;;15.32;52.55;102312.88;4997982;28;20036;-77
2022/07/11 07:39:11;;;;;;;5.30;0.10;;;;;;;15.47;52.48;102309.69;5014683;28;20478;-76
2022/07/11 07:41:37;;;;;;;0.32;0.00;;;;;;;15.81;52.10;102308.38;5014090;28;20116;-78
2022/07/11 07:44:02;;;;;;;1.90;0.03;;;;;;;15.82;51.30;102304.84;5014165;28;20149;-77
2022/07/11 07:46:28;;;;;;;0.63;0.00;;;;;;;15.59;51.38;102303.97;5014696;28;20056;-76
2022/07/11 07:48:54;;;;;;;3.83;0.32;;;;;;;15.49;51.09;102312.28;5001414;28;20041;-76
2022/07/11 07:51:21;;;;;;;0.20;0.00;;;;;;;15.96;50.44;102323.59;5022274;28;20053;-76
2022/07/11 07:53:47;;;;;;;1.50;0.00;;;;;;;15.81;51.02;102324.19;5015538;28;20033;-76
2022/07/11 07:56:12;;;;;;;3.70;0.00;;;;;;;15.37;53.06;102334.66;5015146;28;20037;-78
2022/07/11 07:58:38;;;;;;;0.60;0.08;;;;;;;15.13;54.33;102325.88;5012285;28;20045;-74
2022/07/11 08:03:48;;;;;;;0.60;0.00;;;;;;;15.40;53.99;102331.91;5017374;28;20108;-75
2022/07/11 08:06:14;;;;;;;1.65;0.10;;;;;;;15.08;54.24;102326.03;5020472;28;20474;-76
2022/07/11 08:08:40;;;;;;;2.17;0.10;;;;;;;15.14;54.98;102332.84;5014815;28;20041;-74
2022/07/11 08:11:05;;;;;;;0.38;0.00;;;;;;;14.66;55.40;102337.16;5015955;28;20708;-76
2022/07/11 08:13:31;;;;;;;5.05;0.10;;;;;;;14.84;55.12;102333.03;5020996;28;20139;-76
2022/07/11 08:15:56;;;;;;;1.85;0.00;;;;;;;14.99;55.03;102326.34;5006002;28;20124;-77
2022/07/11 08:18:22;;;;;;;0.45;0.00;;;;;;;15.95;54.25;102323.63;5032104;28;20041;-76
2022/07/11 08:20:47;;;;;;;1.35;0.00;;;;;;;17.12;51.55;102321.41;5005631;28;20112;-78
2022/07/11 08:23:13;;;;;;;0.10;0.10;;;;;;;17.19;49.36;102325.50;4997899;28;20053;-76
2022/07/11 08:25:39;;;;;;;0.40;0.00;;;;;;;17.27;49.28;102325.13;5013420;28;20116;-75
2022/07/11 08:28:05;;;;;;;0.35;0.17;;;;;;;17.57;48.02;102326.41;5015140;28;20045;-76
2022/07/11 08:30:31;;;;;;;0.65;0.10;;;;;;;17.32;48.23;102326.66;4998290;28;20032;-78
2022/07/11 08:32:56;;;;;;;0.10;0.00;;;;;;;16.97;49.46;102325.59;4996422;28;20068;-75
2022/07/11 08:35:22;;;;;;;0.03;0.00;;;;;;;16.98;48.53;102330.81;5015296;28;20044;-75
2022/07/11 08:37:48;;;;;;;1.10;0.00;;;;;;;18.73;45.38;102326.91;5018940;28;20089;-76
2022/07/11 08:40:13;;;;;;;0.85;0.00;;;;;;;20.41;41.21;102326.53;5031217;28;20033;-76
2022/07/11 08:42:43;;;;;;;0.77;0.10;;;;;;;19.99;42.02;102328.06;5016205;28;20033;-76
2022/07/11 08:45:13;;;;;;;0.80;0.00;;;;;;;19.95;41.57;102323.88;4995714;28;20102;-76
2022/07/11 08:47:39;;;;;;;0.10;0.00;;;;;;;18.86;44.14;102327.13;5000837;28;20037;-76
2022/07/11 08:50:06;;;;;;;0.30;0.00;;;;;;;17.97;45.90;102334.22;5000359;28;20325;-75
2022/07/11 08:52:32;;;;;;;0.93;0.00;;;;;;;17.63;47.66;102331.41;4998996;28;20069;-75
2022/07/11 08:54:58;;;;;;;0.10;0.00;;;;;;;17.86;46.29;102334.75;5014489;28;20504;-77
2022/07/11 08:57:24;;;;;;;0.10;0.00;;;;;;;18.02;47.65;102335.72;4999055;28;20044;-77
2022/07/11 08:59:55;;;;;;;1.75;0.00;;;;;;;17.82;46.81;102333.16;5013350;28;20049;-76
2022/07/11 09:02:21;;;;;;;0.60;0.10;;;;;;;19.01;44.45;102323.72;5011012;28;20034;-75
2022/07/11 09:04:47;;;;;;;1.08;0.00;;;;;;;19.45;42.80;102316.94;5034568;28;20120;-74
2022/07/11 09:07:13;;;;;;;0.55;0.00;;;;;;;18.80;43.34;102316.84;5031931;28;20110;-75
2022/07/11 09:09:39;;;;;;;0.20;0.00;;;;;;;19.02;43.38;102324.56;4997954;28;20045;-76
2022/07/11 09:12:12;;;;;;;0.00;0.00;;;;;;;19.06;43.97;102319.00;4999654;28;20045;-76
2022/07/11 09:14:37;;;;;;;1.27;0.00;;;;;;;18.82;42.83;102321.13;5004654;28;20041;-77
2022/07/11 09:17:05;;;;;;;1.65;0.20;;;;;;;18.95;42.85;102331.97;5009711;28;20046;-76
2022/07/11 09:19:33;;;;;;;3.72;0.10;;;;;;;19.14;42.54;102320.38;5033035;28;20076;-76
2022/07/11 09:28:05;;;;;;;0.22;0.00;;;;;;;17.01;47.29;102340.38;4960212;28;20706;-76
2022/07/11 09:30:35;;;;;;;2.30;0.00;;;;;;;17.37;47.28;102347.59;5007750;28;20041;-77
2022/07/11 09:33:04;;;;;;;0.00;0.00;;;;;;;18.97;45.06;102347.81;4996862;28;20100;-76
2022/07/11 09:35:35;;;;;;;0.00;0.00;;;;;;;20.02;40.90;102346.47;5003330;28;20033;-76
2022/07/11 09:38:06;;;;;;;0.10;0.00;;;;;;;19.83;41.45;102335.19;5012910;28;20385;-76
2022/07/11 09:40:31;;;;;;;1.60;0.10;;;;;;;19.41;41.54;102332.16;5012993;28;20119;-76
2022/07/11 09:42:59;;;;;;;0.20;0.00;;;;;;;18.58;43.87;102348.88;5016554;28;20077;-77
2022/07/11 09:45:30;;;;;;;2.05;0.13;;;;;;;17.94;45.87;102343.19;5017653;28;20117;-76
2022/07/11 09:48:10;;;;;;;0.20;0.00;;;;;;;17.55;47.89;102345.91;5014809;28;20890;-77
2022/07/11 09:50:36;;;;;;;0.50;0.10;;;;;;;17.07;48.44;102341.88;5033771;28;20167;-76
2022/07/11 09:53:13;;;;;;;0.25;0.05;;;;;;;17.18;48.41;102343.13;4993747;28;21005;-77
2022/07/11 09:55:46;;;;;;;1.15;0.30;;;;;;;16.92;47.59;102340.78;5014951;28;20148;-77
2022/07/11 09:58:16;;;;;;;0.20;0.10;;;;;;;17.14;47.60;102341.56;5013338;28;20049;-76
2022/07/11 10:00:44;;;;;;;0.35;0.00;;;;;;;17.84;45.80;102344.53;5015509;28;20034;-76
2022/07/11 10:03:11;;;;;;;0.32;0.00;;;;;;;17.89;45.75;102341.66;4981280;28;21119;-75
2022/07/11 10:05:37;;;;;;;0.80;0.00;;;;;;;17.37;46.37;102347.59;5000003;28;20041;-77
2022/07/11 10:08:04;;;;;;;0.65;0.00;;;;;;;17.81;45.80;102353.47;5015583;28;20033;-77
2022/07/11 10:10:31;;;;;;;0.60;0.00;;;;;;;18.26;44.55;102348.72;5009510;28;20115;-78
2022/07/11 10:12:57;;;;;;;0.20;0.00;;;;;;;17.93;43.90;102346.75;5013286;28;20107;-78
2022/07/11 10:15:35;;;;;;;1.25;0.15;;;;;;;18.30;43.51;102344.97;4999429;28;20802;-75
2022/07/11 10:18:07;;;;;;;0.30;0.10;;;;;;;19.24;43.12;102341.03;5018242;28;20069;-77
2022/07/11 10:20:53;;;;;;;0.10;0.00;;;;;;;18.59;43.78;102346.16;5033194;28;20065;-76
2022/07/11 10:23:40;;;;;;;0.63;0.00;;;;;;;17.99;44.69;102351.75;4999568;28;20042;-75
2022/07/11 10:26:21;;;;;;;0.20;0.00;;;;;;;18.30;44.49;102344.97;5009623;28;20875;-75
2022/07/11 10:28:50;;;;;;;0.43;0.00;;;;;;;18.98;42.94;102338.91;5032430;28;20041;-77
2022/07/11 10:31:21;;;;;;;0.77;0.05;;;;;;;19.34;43.01;102337.88;5000846;28;20391;-75
2022/07/11 10:34:02;;;;;;;0.75;0.00;;;;;;;19.90;40.00;102339.19;4994589;28;20052;-78
2022/07/11 10:36:29;;;;;;;0.10;0.10;;;;;;;20.52;40.23;102345.34;5017636;28;20611;-76
2022/07/11 10:39:13;;;;;;;0.32;0.00;;;;;;;20.57;38.63;102330.94;5027000;28;20026;-77
2022/07/11 10:41:38;;;;;;;0.98;0.10;;;;;;;20.41;38.77;102331.00;5033721;28;20064;-75
2022/07/11 10:44:04;;;;;;;3.13;0.10;;;;;;;19.83;40.25;102341.34;5013318;28;20539;-77
2022/07/11 10:46:30;;;;;;;0.00;0.00;;;;;;;18.57;42.30;102348.03;5034327;28;20034;-76
2022/07/11 10:49:15;;;;;;;0.60;0.00;;;;;;;18.45;42.47;102354.81;5017039;28;20028;-74
2022/07/11 10:51:40;;;;;;;1.45;0.08;;;;;;;18.32;42.73;102351.06;5018782;28;20474;-76
2022/07/11 10:54:37;;;;;;;0.85;0.00;;;;;;;17.15;45.59;102352.97;5018694;28;20768;-76
2022/07/11 10:57:25;;;;;;;0.30;0.10;;;;;;;16.95;46.64;102361.78;5020490;28;20057;-76
2022/07/11 11:00:00;;;;;;;0.25;0.10;;;;;;;16.58;48.48;102365.97;5021192;28;20385;-77
2022/07/11 11:02:27;;;;;;;0.38;0.10;;;;;;;16.81;47.64;102371.16;5018043;28;20588;-75
2022/07/11 11:04:58;;;;;;;3.03;0.20;;;;;;;17.28;47.29;102367.34;5015688;28;20551;-74
2022/07/11 11:07:29;;;;;;;0.20;0.10;;;;;;;17.39;47.42;102367.72;5000842;28;20077;-77
2022/07/11 11:09:55;;;;;;;1.58;0.10;;;;;;;18.02;44.93;102366.59;5018053;28;20550;-75
2022/07/11 11:13:00;;;;;;;1.20;0.10;;;;;;;19.13;43.69;102358.44;5003301;28;20053;-76
2022/07/11 11:15:35;;;;;;;0.63;0.10;;;;;;;18.80;43.29;102370.69;4993428;28;20129;-76
2022/07/11 11:18:23;;;;;;;1.10;0.32;;;;;;;18.12;43.50;102372.28;4995592;28;20050;-77
2022/07/11 11:21:06;;;;;;;2.38;0.13;;;;;;;18.05;43.17;102366.44;4993502;28;20026;-79
2022/07/11 11:23:33;;;;;;;1.85;0.17;;;;;;;18.21;43.91;102367.47;5005716;28;20686;-76
2022/07/11 11:26:15;;;;;;;1.95;0.20;;;;;;;18.73;42.26;102366.63;5007582;28;20025;-76
2022/07/11 11:29:10;;;;;;;1.88;0.10;;;;;;;18.78;42.42;102367.25;5005490;28;20144;-77
2022/07/11 11:31:36;;;;;;;0.60;0.28;;;;;;;18.74;42.61;102362.19;4981522;28;20564;-76
2022/07/11 11:34:03;;;;;;;2.15;0.60;;;;;;;18.63;43.13;102368.03;5004972;28;20042;-78